sensor_id;sensor_type;location;lat;lon;timestamp;pressure;altitude;pressure_sealevel;temperature
12753;BMP180;6440;44.616;2.032;2022-07-10T00:01:38;99456;;;18.60
12753;BMP180;6440;44.616;2.032;2022-07-10T00:04:07;99459;;;18.60
12753;BMP180;6440;44.616;2.032;2022-07-10T00:06:36;99455;;;18.60
12753;BMP180;6440;44.616;2.032;2022-07-10T00:09:05;99456;;;18.60
12753;BMP180;6440;44.616;2.032;2022-07-10T00:11:33;99454;;;18.60
12753;BMP180;6440;44.616;2.032;2022-07-10T00:14:02;99450;;;18.50
12753;BMP180;6440;44.616;2.032;2022-07-10T00:16:30;99454;;;18.50
12753;BMP180;6440;44.616;2.032;2022-07-10T00:18:59;99452;;;18.40
12753;BMP180;6440;44.616;2.032;2022-07-10T00:21:29;99443;;;18.40
12753;BMP180;6440;44.616;2.032;2022-07-10T00:23:58;99452;;;18.30
12753;BMP180;6440;44.616;2.032;2022-07-10T00:26:27;99454;;;18.20
12753;BMP180;6440;44.616;2.032;2022-07-10T00:28:56;99448;;;18.20
12753;BMP180;6440;44.616;2.032;2022-07-10T00:31:25;99442;;;18.10
12753;BMP180;6440;44.616;2.032;2022-07-10T00:33:54;99440;;;18.10
12753;BMP180;6440;44.616;2.032;2022-07-10T00:36:23;99442;;;18.20
12753;BMP180;6440;44.616;2.032;2022-07-10T00:38:51;99438;;;18.00
12753;BMP180;6440;44.616;2.032;2022-07-10T00:41:20;99434;;;18.00
12753;BMP180;6440;44.616;2.032;2022-07-10T00:43:55;99429;;;18.00
12753;BMP180;6440;44.616;2.032;2022-07-10T00:46:23;99438;;;17.90
12753;BMP180;6440;44.616;2.032;2022-07-10T00:48:51;99434;;;17.90
12753;BMP180;6440;44.616;2.032;2022-07-10T00:51:19;99434;;;17.80
12753;BMP180;6440;44.616;2.032;2022-07-10T00:53:47;99420;;;17.80
12753;BMP180;6440;44.616;2.032;2022-07-10T00:56:18;99426;;;17.70
12753;BMP180;6440;44.616;2.032;2022-07-10T00:58:47;99419;;;17.50
12753;BMP180;6440;44.616;2.032;2022-07-10T01:01:15;99427;;;17.50
12753;BMP180;6440;44.616;2.032;2022-07-10T01:03:43;99430;;;17.50
12753;BMP180;6440;44.616;2.032;2022-07-10T01:06:11;99426;;;17.40
12753;BMP180;6440;44.616;2.032;2022-07-10T01:08:39;99430;;;17.50
12753;BMP180;6440;44.616;2.032;2022-07-10T01:11:08;99422;;;17.40
12753;BMP180;6440;44.616;2.032;2022-07-10T01:13:36;99416;;;17.20
12753;BMP180;6440;44.616;2.032;2022-07-10T01:16:04;99415;;;17.10
12753;BMP180;6440;44.616;2.032;2022-07-10T01:18:34;99421;;;17.10
12753;BMP180;6440;44.616;2.032;2022-07-10T01:21:03;99419;;;17.10
12753;BMP180;6440;44.616;2.032;2022-07-10T01:23:32;99415;;;17.20
12753;BMP180;6440;44.616;2.032;2022-07-10T01:26:02;99417;;;17.20
12753;BMP180;6440;44.616;2.032;2022-07-10T01:28:30;99408;;;17.00
12753;BMP180;6440;44.616;2.032;2022-07-10T01:30:59;99409;;;17.10
12753;BMP180;6440;44.616;2.032;2022-07-10T01:33:27;99408;;;17.00
12753;BMP180;6440;44.616;2.032;2022-07-10T01:35:56;99410;;;17.00
12753;BMP180;6440;44.616;2.032;2022-07-10T01:38:25;99405;;;17.00
12753;BMP180;6440;44.616;2.032;2022-07-10T01:40:54;99404;;;16.90
12753;BMP180;6440;44.616;2.032;2022-07-10T01:43:22;99408;;;16.90
12753;BMP180;6440;44.616;2.032;2022-07-10T01:45:51;99405;;;16.90
12753;BMP180;6440;44.616;2.032;2022-07-10T01:48:20;99405;;;16.90
12753;BMP180;6440;44.616;2.032;2022-07-10T01:50:49;99410;;;16.80
12753;BMP180;6440;44.616;2.032;2022-07-10T01:53:18;99410;;;16.80
12753;BMP180;6440;44.616;2.032;2022-07-10T01:55:47;99406;;;16.80
12753;BMP180;6440;44.616;2.032;2022-07-10T01:58:16;99399;;;16.80
12753;BMP180;6440;44.616;2.032;2022-07-10T02:00:45;99394;;;16.70
12753;BMP180;6440;44.616;2.032;2022-07-10T02:03:13;99396;;;16.70
12753;BMP180;6440;44.616;2.032;2022-07-10T02:05:47;99398;;;16.60
12753;BMP180;6440;44.616;2.032;2022-07-10T02:08:16;99395;;;16.50
12753;BMP180;6440;44.616;2.032;2022-07-10T02:10:45;99392;;;16.50
12753;BMP180;6440;44.616;2.032;2022-07-10T02:13:14;99400;;;16.40
12753;BMP180;6440;44.616;2.032;2022-07-10T02:15:43;99393;;;16.50
12753;BMP180;6440;44.616;2.032;2022-07-10T02:18:11;99395;;;16.50
12753;BMP180;6440;44.616;2.032;2022-07-10T02:20:40;99398;;;16.50
12753;BMP180;6440;44.616;2.032;2022-07-10T02:23:09;99398;;;16.40
12753;BMP180;6440;44.616;2.032;2022-07-10T02:25:38;99395;;;16.30
12753;BMP180;6440;44.616;2.032;2022-07-10T02:28:07;99393;;;16.30
12753;BMP180;6440;44.616;2.032;2022-07-10T02:30:34;99393;;;16.20
12753;BMP180;6440;44.616;2.032;2022-07-10T02:33:03;99391;;;16.20
12753;BMP180;6440;44.616;2.032;2022-07-10T02:35:32;99387;;;16.20
12753;BMP180;6440;44.616;2.032;2022-07-10T02:38:01;99378;;;16.10
12753;BMP180;6440;44.616;2.032;2022-07-10T02:40:30;99399;;;16.00
12753;BMP180;6440;44.616;2.032;2022-07-10T02:42:59;99381;;;16.00
12753;BMP180;6440;44.616;2.032;2022-07-10T02:45:28;99381;;;16.00
12753;BMP180;6440;44.616;2.032;2022-07-10T02:47:57;99389;;;16.00
12753;BMP180;6440;44.616;2.032;2022-07-10T02:50:26;99383;;;15.90
12753;BMP180;6440;44.616;2.032;2022-07-10T02:52:55;99394;;;15.90
12753;BMP180;6440;44.616;2.032;2022-07-10T02:55:23;99396;;;15.80
12753;BMP180;6440;44.616;2.032;2022-07-10T02:57:52;99390;;;15.80
12753;BMP180;6440;44.616;2.032;2022-07-10T03:00:21;99390;;;15.80
12753;BMP180;6440;44.616;2.032;2022-07-10T03:02:50;99395;;;15.80
12753;BMP180;6440;44.616;2.032;2022-07-10T03:05:20;99392;;;15.90
12753;BMP180;6440;44.616;2.032;2022-07-10T03:07:48;99386;;;15.80
12753;BMP180;6440;44.616;2.032;2022-07-10T03:10:17;99381;;;15.80
12753;BMP180;6440;44.616;2.032;2022-07-10T03:12:45;99383;;;15.70
12753;BMP180;6440;44.616;2.032;2022-07-10T03:15:13;99385;;;15.60
12753;BMP180;6440;44.616;2.032;2022-07-10T03:17:41;99382;;;15.60
12753;BMP180;6440;44.616;2.032;2022-07-10T03:20:10;99384;;;15.60
12753;BMP180;6440;44.616;2.032;2022-07-10T03:22:38;99377;;;15.50
12753;BMP180;6440;44.616;2.032;2022-07-10T03:25:08;99385;;;15.50
12753;BMP180;6440;44.616;2.032;2022-07-10T03:27:37;99382;;;15.50
12753;BMP180;6440;44.616;2.032;2022-07-10T03:30:07;99379;;;15.50
12753;BMP180;6440;44.616;2.032;2022-07-10T03:32:36;99374;;;15.50
12753;BMP180;6440;44.616;2.032;2022-07-10T03:35:06;99373;;;15.50
12753;BMP180;6440;44.616;2.032;2022-07-10T03:37:35;99372;;;15.40
12753;BMP180;6440;44.616;2.032;2022-07-10T03:40:05;99377;;;15.40
12753;BMP180;6440;44.616;2.032;2022-07-10T03:42:34;99380;;;15.40
12753;BMP180;6440;44.616;2.032;2022-07-10T03:45:03;99377;;;15.40
12753;BMP180;6440;44.616;2.032;2022-07-10T03:47:33;99372;;;15.40
12753;BMP180;6440;44.616;2.032;2022-07-10T03:50:02;99381;;;15.30
12753;BMP180;6440;44.616;2.032;2022-07-10T03:52:30;99374;;;15.30
12753;BMP180;6440;44.616;2.032;2022-07-10T03:54:59;99372;;;15.30
12753;BMP180;6440;44.616;2.032;2022-07-10T03:57:28;99377;;;15.20
12753;BMP180;6440;44.616;2.032;2022-07-10T04:00:02;99383;;;15.20
12753;BMP180;6440;44.616;2.032;2022-07-10T04:02:31;99381;;;15.20
12753;BMP180;6440;44.616;2.032;2022-07-10T04:05:00;99369;;;15.20
12753;BMP180;6440;44.616;2.032;2022-07-10T04:07:29;99367;;;15.10
12753;BMP180;6440;44.616;2.032;2022-07-10T04:09:58;99367;;;15.10
12753;BMP180;6440;44.616;2.032;2022-07-10T04:12:26;99365;;;15.10
12753;BMP180;6440;44.616;2.032;2022-07-10T04:14:55;99371;;;15.10
12753;BMP180;6440;44.616;2.032;2022-07-10T04:17:25;99368;;;15.10
12753;BMP180;6440;44.616;2.032;2022-07-10T04:19:54;99365;;;15.00
12753;BMP180;6440;44.616;2.032;2022-07-10T04:22:23;99367;;;15.10
12753;BMP180;6440;44.616;2.032;2022-07-10T04:24:51;99367;;;15.10
12753;BMP180;6440;44.616;2.032;2022-07-10T04:27:20;99367;;;15.00
12753;BMP180;6440;44.616;2.032;2022-07-10T04:29:48;99368;;;15.00
12753;BMP180;6440;44.616;2.032;2022-07-10T04:32:17;99371;;;14.90
12753;BMP180;6440;44.616;2.032;2022-07-10T04:34:45;99364;;;14.80
12753;BMP180;6440;44.616;2.032;2022-07-10T04:37:14;99363;;;14.90
12753;BMP180;6440;44.616;2.032;2022-07-10T04:39:43;99370;;;14.90
12753;BMP180;6440;44.616;2.032;2022-07-10T04:42:11;99375;;;14.80
12753;BMP180;6440;44.616;2.032;2022-07-10T04:44:40;99371;;;14.90
12753;BMP180;6440;44.616;2.032;2022-07-10T04:47:08;99365;;;14.80
12753;BMP180;6440;44.616;2.032;2022-07-10T04:49:37;99361;;;14.70
12753;BMP180;6440;44.616;2.032;2022-07-10T04:52:06;99360;;;14.70
12753;BMP180;6440;44.616;2.032;2022-07-10T04:54:35;99361;;;14.70
12753;BMP180;6440;44.616;2.032;2022-07-10T04:57:05;99365;;;14.90
12753;BMP180;6440;44.616;2.032;2022-07-10T04:59:34;99361;;;15.00
12753;BMP180;6440;44.616;2.032;2022-07-10T05:02:03;99359;;;14.90
12753;BMP180;6440;44.616;2.032;2022-07-10T05:04:32;99359;;;14.90
12753;BMP180;6440;44.616;2.032;2022-07-10T05:07:00;99363;;;15.00
12753;BMP180;6440;44.616;2.032;2022-07-10T05:09:29;99367;;;15.10
12753;BMP180;6440;44.616;2.032;2022-07-10T05:11:58;99365;;;15.10
12753;BMP180;6440;44.616;2.032;2022-07-10T05:14:27;99363;;;15.20
12753;BMP180;6440;44.616;2.032;2022-07-10T05:16:56;99371;;;15.20
12753;BMP180;6440;44.616;2.032;2022-07-10T05:19:25;99371;;;15.20
12753;BMP180;6440;44.616;2.032;2022-07-10T05:21:54;99371;;;15.30
12753;BMP180;6440;44.616;2.032;2022-07-10T05:24:23;99362;;;15.30
12753;BMP180;6440;44.616;2.032;2022-07-10T05:26:52;99364;;;15.30
12753;BMP180;6440;44.616;2.032;2022-07-10T05:29:21;99358;;;15.40
12753;BMP180;6440;44.616;2.032;2022-07-10T05:31:50;99362;;;15.40
12753;BMP180;6440;44.616;2.032;2022-07-10T05:34:19;99365;;;15.40
12753;BMP180;6440;44.616;2.032;2022-07-10T05:36:48;99363;;;15.50
12753;BMP180;6440;44.616;2.032;2022-07-10T05:39:17;99361;;;15.50
12753;BMP180;6440;44.616;2.032;2022-07-10T05:41:46;99359;;;15.50
12753;BMP180;6440;44.616;2.032;2022-07-10T05:44:15;99357;;;15.50
12753;BMP180;6440;44.616;2.032;2022-07-10T05:46:44;99353;;;15.60
12753;BMP180;6440;44.616;2.032;2022-07-10T05:49:13;99354;;;15.70
12753;BMP180;6440;44.616;2.032;2022-07-10T05:51:42;99353;;;15.70
12753;BMP180;6440;44.616;2.032;2022-07-10T05:54:11;99353;;;15.80
12753;BMP180;6440;44.616;2.032;2022-07-10T05:56:39;99352;;;15.90
12753;BMP180;6440;44.616;2.032;2022-07-10T05:59:08;99358;;;15.90
12753;BMP180;6440;44.616;2.032;2022-07-10T06:01:37;99362;;;16.00
12753;BMP180;6440;44.616;2.032;2022-07-10T06:04:06;99356;;;16.10
12753;BMP180;6440;44.616;2.032;2022-07-10T06:06:35;99357;;;16.20
12753;BMP180;6440;44.616;2.032;2022-07-10T06:09:04;99353;;;16.30
12753;BMP180;6440;44.616;2.032;2022-07-10T06:11:33;99358;;;16.40
12753;BMP180;6440;44.616;2.032;2022-07-10T06:14:02;99353;;;16.50
12753;BMP180;6440;44.616;2.032;2022-07-10T06:16:31;99350;;;16.60
12753;BMP180;6440;44.616;2.032;2022-07-10T06:19:00;99353;;;16.80
12753;BMP180;6440;44.616;2.032;2022-07-10T06:21:29;99350;;;16.90
12753;BMP180;6440;44.616;2.032;2022-07-10T06:23:58;99352;;;17.00
12753;BMP180;6440;44.616;2.032;2022-07-10T06:26:27;99351;;;17.20
12753;BMP180;6440;44.616;2.032;2022-07-10T06:28:56;99351;;;17.40
12753;BMP180;6440;44.616;2.032;2022-07-10T06:31:25;99345;;;17.50
12753;BMP180;6440;44.616;2.032;2022-07-10T06:33:54;99343;;;17.70
12753;BMP180;6440;44.616;2.032;2022-07-10T06:36:22;99341;;;17.80
12753;BMP180;6440;44.616;2.032;2022-07-10T06:38:52;99346;;;17.90
12753;BMP180;6440;44.616;2.032;2022-07-10T06:41:21;99344;;;18.10
12753;BMP180;6440;44.616;2.032;2022-07-10T06:43:50;99340;;;18.20
12753;BMP180;6440;44.616;2.032;2022-07-10T06:46:19;99342;;;18.40
12753;BMP180;6440;44.616;2.032;2022-07-10T06:48:48;99345;;;18.70
12753;BMP180;6440;44.616;2.032;2022-07-10T06:51:17;99335;;;19.10
12753;BMP180;6440;44.616;2.032;2022-07-10T06:53:45;99339;;;19.90
12753;BMP180;6440;44.616;2.032;2022-07-10T06:56:14;99341;;;20.90
12753;BMP180;6440;44.616;2.032;2022-07-10T06:58:42;99333;;;21.80
12753;BMP180;6440;44.616;2.032;2022-07-10T07:01:11;99338;;;23.00
12753;BMP180;6440;44.616;2.032;2022-07-10T07:03:40;99335;;;24.50
12753;BMP180;6440;44.616;2.032;2022-07-10T07:06:08;99335;;;26.20
12753;BMP180;6440;44.616;2.032;2022-07-10T07:08:37;99332;;;28.00
12753;BMP180;6440;44.616;2.032;2022-07-10T07:11:06;99337;;;29.90
12753;BMP180;6440;44.616;2.032;2022-07-10T07:13:34;99329;;;31.40
12753;BMP180;6440;44.616;2.032;2022-07-10T07:16:03;99319;;;33.00
12753;BMP180;6440;44.616;2.032;2022-07-10T07:18:32;99330;;;34.20
12753;BMP180;6440;44.616;2.032;2022-07-10T07:21:00;99327;;;34.70
12753;BMP180;6440;44.616;2.032;2022-07-10T07:23:34;99326;;;35.80
12753;BMP180;6440;44.616;2.032;2022-07-10T07:26:03;99333;;;36.70
12753;BMP180;6440;44.616;2.032;2022-07-10T07:28:31;99326;;;37.20
12753;BMP180;6440;44.616;2.032;2022-07-10T07:31:00;99331;;;37.90
12753;BMP180;6440;44.616;2.032;2022-07-10T07:33:29;99328;;;38.70
12753;BMP180;6440;44.616;2.032;2022-07-10T07:35:56;99341;;;38.90
12753;BMP180;6440;44.616;2.032;2022-07-10T07:38:25;99336;;;39.00
12753;BMP180;6440;44.616;2.032;2022-07-10T07:40:54;99335;;;37.70
12753;BMP180;6440;44.616;2.032;2022-07-10T07:43:22;99337;;;38.60
12753;BMP180;6440;44.616;2.032;2022-07-10T07:45:51;99344;;;37.30
12753;BMP180;6440;44.616;2.032;2022-07-10T07:48:20;99346;;;37.60
12753;BMP180;6440;44.616;2.032;2022-07-10T07:50:49;99341;;;38.50
12753;BMP180;6440;44.616;2.032;2022-07-10T07:53:18;99336;;;38.60
12753;BMP180;6440;44.616;2.032;2022-07-10T07:55:47;99341;;;38.80
12753;BMP180;6440;44.616;2.032;2022-07-10T07:58:16;99339;;;39.20
12753;BMP180;6440;44.616;2.032;2022-07-10T08:00:44;99339;;;38.90
12753;BMP180;6440;44.616;2.032;2022-07-10T08:03:13;99333;;;37.40
12753;BMP180;6440;44.616;2.032;2022-07-10T08:05:41;99338;;;37.00
12753;BMP180;6440;44.616;2.032;2022-07-10T08:08:10;99330;;;37.70
12753;BMP180;6440;44.616;2.032;2022-07-10T08:10:38;99338;;;37.90
12753;BMP180;6440;44.616;2.032;2022-07-10T08:13:07;99333;;;38.50
12753;BMP180;6440;44.616;2.032;2022-07-10T08:15:36;99334;;;39.00
12753;BMP180;6440;44.616;2.032;2022-07-10T08:18:05;99345;;;38.70
12753;BMP180;6440;44.616;2.032;2022-07-10T08:20:33;99336;;;38.60
12753;BMP180;6440;44.616;2.032;2022-07-10T08:23:01;99332;;;39.00
12753;BMP180;6440;44.616;2.032;2022-07-10T08:25:30;99335;;;37.90
12753;BMP180;6440;44.616;2.032;2022-07-10T08:28:00;99333;;;40.00
12753;BMP180;6440;44.616;2.032;2022-07-10T08:30:27;99328;;;38.70
12753;BMP180;6440;44.616;2.032;2022-07-10T08:32:56;99332;;;39.10
12753;BMP180;6440;44.616;2.032;2022-07-10T08:35:25;99335;;;40.40
12753;BMP180;6440;44.616;2.032;2022-07-10T08:37:53;99331;;;41.30
12753;BMP180;6440;44.616;2.032;2022-07-10T08:40:21;99331;;;41.30
12753;BMP180;6440;44.616;2.032;2022-07-10T08:42:49;99331;;;41.10
12753;BMP180;6440;44.616;2.032;2022-07-10T08:45:17;99327;;;41.70
12753;BMP180;6440;44.616;2.032;2022-07-10T08:47:46;99326;;;40.10
12753;BMP180;6440;44.616;2.032;2022-07-10T08:50:17;99317;;;41.50
12753;BMP180;6440;44.616;2.032;2022-07-10T08:52:47;99331;;;41.60
12753;BMP180;6440;44.616;2.032;2022-07-10T08:55:15;99327;;;42.20
12753;BMP180;6440;44.616;2.032;2022-07-10T08:57:43;99330;;;41.30
12753;BMP180;6440;44.616;2.032;2022-07-10T09:00:11;99321;;;39.30
12753;BMP180;6440;44.616;2.032;2022-07-10T09:02:40;99324;;;40.10
12753;BMP180;6440;44.616;2.032;2022-07-10T09:05:10;99326;;;40.80
12753;BMP180;6440;44.616;2.032;2022-07-10T09:07:38;99326;;;42.10
12753;BMP180;6440;44.616;2.032;2022-07-10T09:10:08;99326;;;40.60
12753;BMP180;6440;44.616;2.032;2022-07-10T09:12:56;99331;;;40.50
12753;BMP180;6440;44.616;2.032;2022-07-10T09:15:25;99321;;;41.20
12753;BMP180;6440;44.616;2.032;2022-07-10T09:17:56;99321;;;42.40
12753;BMP180;6440;44.616;2.032;2022-07-10T09:20:34;99318;;;42.70
12753;BMP180;6440;44.616;2.032;2022-07-10T09:23:21;99315;;;42.30
12753;BMP180;6440;44.616;2.032;2022-07-10T09:25:50;99319;;;43.30
12753;BMP180;6440;44.616;2.032;2022-07-10T09:28:18;99326;;;42.70
12753;BMP180;6440;44.616;2.032;2022-07-10T09:30:45;99326;;;42.90
12753;BMP180;6440;44.616;2.032;2022-07-10T09:33:24;99326;;;43.40
12753;BMP180;6440;44.616;2.032;2022-07-10T09:36:04;99321;;;41.40
12753;BMP180;6440;44.616;2.032;2022-07-10T09:38:54;99320;;;41.80
12753;BMP180;6440;44.616;2.032;2022-07-10T09:41:24;99326;;;41.60
12753;BMP180;6440;44.616;2.032;2022-07-10T09:43:58;99316;;;42.80
12753;BMP180;6440;44.616;2.032;2022-07-10T09:49:11;99315;;;43.50
12753;BMP180;6440;44.616;2.032;2022-07-10T09:51:47;99310;;;43.30
12753;BMP180;6440;44.616;2.032;2022-07-10T09:54:15;99319;;;42.80
12753;BMP180;6440;44.616;2.032;2022-07-10T09:56:45;99310;;;42.00
12753;BMP180;6440;44.616;2.032;2022-07-10T09:59:20;99310;;;41.90
12753;BMP180;6440;44.616;2.032;2022-07-10T10:01:50;99300;;;43.20
12753;BMP180;6440;44.616;2.032;2022-07-10T10:04:18;99317;;;42.40
12753;BMP180;6440;44.616;2.032;2022-07-10T10:06:49;99309;;;42.50
12753;BMP180;6440;44.616;2.032;2022-07-10T10:09:37;99310;;;42.80
12753;BMP180;6440;44.616;2.032;2022-07-10T10:12:04;99299;;;43.60
12753;BMP180;6440;44.616;2.032;2022-07-10T10:14:30;99305;;;43.60
12753;BMP180;6440;44.616;2.032;2022-07-10T10:16:58;99307;;;42.30
12753;BMP180;6440;44.616;2.032;2022-07-10T10:19:26;99295;;;41.50
12753;BMP180;6440;44.616;2.032;2022-07-10T10:21:59;99299;;;41.70
12753;BMP180;6440;44.616;2.032;2022-07-10T10:24:27;99308;;;39.90
12753;BMP180;6440;44.616;2.032;2022-07-10T10:26:55;99296;;;40.10
12753;BMP180;6440;44.616;2.032;2022-07-10T10:29:23;99288;;;40.60
12753;BMP180;6440;44.616;2.032;2022-07-10T10:31:51;99289;;;41.30
12753;BMP180;6440;44.616;2.032;2022-07-10T10:34:43;99289;;;41.50
12753;BMP180;6440;44.616;2.032;2022-07-10T10:37:35;99286;;;41.90
12753;BMP180;6440;44.616;2.032;2022-07-10T10:40:05;99286;;;41.10
12753;BMP180;6440;44.616;2.032;2022-07-10T10:42:41;99277;;;41.30
12753;BMP180;6440;44.616;2.032;2022-07-10T10:45:23;99286;;;40.50
12753;BMP180;6440;44.616;2.032;2022-07-10T10:47:59;99273;;;40.30
12753;BMP180;6440;44.616;2.032;2022-07-10T10:50:48;99272;;;40.40
12753;BMP180;6440;44.616;2.032;2022-07-10T10:53:21;99265;;;40.50
12753;BMP180;6440;44.616;2.032;2022-07-10T10:56:22;99259;;;40.80
12753;BMP180;6440;44.616;2.032;2022-07-10T10:58:50;99262;;;40.80
12753;BMP180;6440;44.616;2.032;2022-07-10T11:01:25;99262;;;40.50
12753;BMP180;6440;44.616;2.032;2022-07-10T11:04:17;99248;;;39.60
12753;BMP180;6440;44.616;2.032;2022-07-10T11:06:47;99257;;;40.10
12753;BMP180;6440;44.616;2.032;2022-07-10T11:09:32;99232;;;40.10
12753;BMP180;6440;44.616;2.032;2022-07-10T11:12:05;99240;;;40.10
12753;BMP180;6440;44.616;2.032;2022-07-10T11:14:35;99236;;;40.20
12753;BMP180;6440;44.616;2.032;2022-07-10T11:17:03;99231;;;40.20
12753;BMP180;6440;44.616;2.032;2022-07-10T11:19:31;99226;;;39.50
12753;BMP180;6440;44.616;2.032;2022-07-10T11:25:59;99225;;;38.10
12753;BMP180;6440;44.616;2.032;2022-07-10T11:28:07;99226;;;37.70
12753;BMP180;6440;44.616;2.032;2022-07-10T11:30:45;99220;;;37.40
12753;BMP180;6440;44.616;2.032;2022-07-10T11:33:13;99224;;;37.20
12753;BMP180;6440;44.616;2.032;2022-07-10T11:35:44;99215;;;36.90
12753;BMP180;6440;44.616;2.032;2022-07-10T11:38:09;99222;;;37.00
12753;BMP180;6440;44.616;2.032;2022-07-10T11:40:37;99220;;;37.60
12753;BMP180;6440;44.616;2.032;2022-07-10T11:43:06;99234;;;37.70
12753;BMP180;6440;44.616;2.032;2022-07-10T11:45:34;99214;;;36.80
12753;BMP180;6440;44.616;2.032;2022-07-10T11:48:03;99221;;;36.30
12753;BMP180;6440;44.616;2.032;2022-07-10T11:50:36;99218;;;35.80
12753;BMP180;6440;44.616;2.032;2022-07-10T11:53:03;99213;;;36.20
12753;BMP180;6440;44.616;2.032;2022-07-10T11:55:31;99204;;;35.70
12753;BMP180;6440;44.616;2.032;2022-07-10T11:57:59;99213;;;35.70
12753;BMP180;6440;44.616;2.032;2022-07-10T12:00:28;99206;;;35.90
12753;BMP180;6440;44.616;2.032;2022-07-10T12:02:56;99200;;;35.80
12753;BMP180;6440;44.616;2.032;2022-07-10T12:05:35;99199;;;35.90
12753;BMP180;6440;44.616;2.032;2022-07-10T12:08:03;99201;;;35.60
12753;BMP180;6440;44.616;2.032;2022-07-10T12:10:31;99195;;;35.40
12753;BMP180;6440;44.616;2.032;2022-07-10T12:13:08;99194;;;35.50
12753;BMP180;6440;44.616;2.032;2022-07-10T12:15:36;99195;;;35.10
12753;BMP180;6440;44.616;2.032;2022-07-10T12:18:06;99194;;;34.70
12753;BMP180;6440;44.616;2.032;2022-07-10T12:20:33;99185;;;34.20
12753;BMP180;6440;44.616;2.032;2022-07-10T12:23:00;99195;;;34.60
12753;BMP180;6440;44.616;2.032;2022-07-10T12:25:28;99186;;;34.70
12753;BMP180;6440;44.616;2.032;2022-07-10T12:27:57;99184;;;35.00
12753;BMP180;6440;44.616;2.032;2022-07-10T12:30:39;99181;;;35.10
12753;BMP180;6440;44.616;2.032;2022-07-10T12:33:10;99181;;;34.80
12753;BMP180;6440;44.616;2.032;2022-07-10T12:35:53;99182;;;34.50
12753;BMP180;6440;44.616;2.032;2022-07-10T12:38:23;99176;;;34.30
12753;BMP180;6440;44.616;2.032;2022-07-10T12:40:50;99170;;;34.20
12753;BMP180;6440;44.616;2.032;2022-07-10T12:43:26;99169;;;34.20
12753;BMP180;6440;44.616;2.032;2022-07-10T12:46:08;99174;;;33.90
12753;BMP180;6440;44.616;2.032;2022-07-10T12:48:36;99166;;;34.10
12753;BMP180;6440;44.616;2.032;2022-07-10T12:51:21;99168;;;34.20
12753;BMP180;6440;44.616;2.032;2022-07-10T12:53:48;99165;;;34.50
12753;BMP180;6440;44.616;2.032;2022-07-10T12:56:32;99163;;;34.80
12753;BMP180;6440;44.616;2.032;2022-07-10T12:58:58;99156;;;34.80
12753;BMP180;6440;44.616;2.032;2022-07-10T13:01:28;99161;;;34.70
12753;BMP180;6440;44.616;2.032;2022-07-10T13:03:58;99159;;;34.70
12753;BMP180;6440;44.616;2.032;2022-07-10T13:06:29;99155;;;35.00
12753;BMP180;6440;44.616;2.032;2022-07-10T13:08:57;99149;;;35.10
12753;BMP180;6440;44.616;2.032;2022-07-10T13:11:25;99147;;;35.30
12753;BMP180;6440;44.616;2.032;2022-07-10T13:13:53;99150;;;35.40
12753;BMP180;6440;44.616;2.032;2022-07-10T13:16:22;99148;;;35.70
12753;BMP180;6440;44.616;2.032;2022-07-10T13:18:50;99147;;;35.70
12753;BMP180;6440;44.616;2.032;2022-07-10T13:21:19;99146;;;35.70
12753;BMP180;6440;44.616;2.032;2022-07-10T13:23:48;99137;;;35.70
12753;BMP180;6440;44.616;2.032;2022-07-10T13:26:17;99137;;;35.70
12753;BMP180;6440;44.616;2.032;2022-07-10T13:28:45;99133;;;35.60
12753;BMP180;6440;44.616;2.032;2022-07-10T13:31:14;99139;;;35.50
12753;BMP180;6440;44.616;2.032;2022-07-10T13:33:42;99130;;;35.60
12753;BMP180;6440;44.616;2.032;2022-07-10T13:36:11;99133;;;35.40
12753;BMP180;6440;44.616;2.032;2022-07-10T13:38:40;99129;;;35.30
12753;BMP180;6440;44.616;2.032;2022-07-10T13:41:08;99118;;;35.30
12753;BMP180;6440;44.616;2.032;2022-07-10T13:43:36;99118;;;35.20
12753;BMP180;6440;44.616;2.032;2022-07-10T13:46:04;98997;;;35.10
12753;BMP180;6440;44.616;2.032;2022-07-10T13:48:33;99109;;;34.80
12753;BMP180;6440;44.616;2.032;2022-07-10T13:51:02;99115;;;34.80
12753;BMP180;6440;44.616;2.032;2022-07-10T13:53:30;99100;;;34.70
12753;BMP180;6440;44.616;2.032;2022-07-10T13:55:59;99101;;;34.70
12753;BMP180;6440;44.616;2.032;2022-07-10T13:58:28;99103;;;34.70
12753;BMP180;6440;44.616;2.032;2022-07-10T14:00:56;99101;;;34.70
12753;BMP180;6440;44.616;2.032;2022-07-10T14:03:25;99103;;;34.60
12753;BMP180;6440;44.616;2.032;2022-07-10T14:05:53;99101;;;34.40
12753;BMP180;6440;44.616;2.032;2022-07-10T14:08:22;99104;;;34.30
12753;BMP180;6440;44.616;2.032;2022-07-10T14:10:51;99094;;;34.20
12753;BMP180;6440;44.616;2.032;2022-07-10T14:13:19;99091;;;34.00
12753;BMP180;6440;44.616;2.032;2022-07-10T14:15:47;99084;;;34.10
12753;BMP180;6440;44.616;2.032;2022-07-10T14:18:16;99087;;;34.10
12753;BMP180;6440;44.616;2.032;2022-07-10T14:20:45;99090;;;34.40
12753;BMP180;6440;44.616;2.032;2022-07-10T14:23:19;99083;;;34.30
12753;BMP180;6440;44.616;2.032;2022-07-10T14:25:47;99086;;;34.30
12753;BMP180;6440;44.616;2.032;2022-07-10T14:28:16;99086;;;34.40
12753;BMP180;6440;44.616;2.032;2022-07-10T14:30:44;99079;;;34.40
12753;BMP180;6440;44.616;2.032;2022-07-10T14:33:13;99076;;;34.40
12753;BMP180;6440;44.616;2.032;2022-07-10T14:35:41;99076;;;34.40
12753;BMP180;6440;44.616;2.032;2022-07-10T14:38:10;99071;;;34.30
12753;BMP180;6440;44.616;2.032;2022-07-10T14:40:39;99065;;;34.40
12753;BMP180;6440;44.616;2.032;2022-07-10T14:43:07;99063;;;34.40
12753;BMP180;6440;44.616;2.032;2022-07-10T14:45:36;99057;;;34.20
12753;BMP180;6440;44.616;2.032;2022-07-10T14:48:05;99060;;;34.10
12753;BMP180;6440;44.616;2.032;2022-07-10T14:50:34;99066;;;33.80
12753;BMP180;6440;44.616;2.032;2022-07-10T14:53:03;99063;;;33.60
12753;BMP180;6440;44.616;2.032;2022-07-10T14:55:31;99052;;;33.80
12753;BMP180;6440;44.616;2.032;2022-07-10T14:58:00;99053;;;33.90
12753;BMP180;6440;44.616;2.032;2022-07-10T15:00:28;99062;;;33.80
12753;BMP180;6440;44.616;2.032;2022-07-10T15:02:57;99055;;;34.00
12753;BMP180;6440;44.616;2.032;2022-07-10T15:05:25;99051;;;34.00
12753;BMP180;6440;44.616;2.032;2022-07-10T15:07:54;99049;;;34.20
12753;BMP180;6440;44.616;2.032;2022-07-10T15:10:23;99049;;;34.20
12753;BMP180;6440;44.616;2.032;2022-07-10T15:12:51;99048;;;34.20
12753;BMP180;6440;44.616;2.032;2022-07-10T15:15:20;99051;;;34.10
12753;BMP180;6440;44.616;2.032;2022-07-10T15:17:49;99048;;;34.10
12753;BMP180;6440;44.616;2.032;2022-07-10T15:20:17;99039;;;34.10
12753;BMP180;6440;44.616;2.032;2022-07-10T15:22:46;99032;;;34.10